Puerto Banus, Marbella

>

This is an optional block (switch it off / on) in the settings - file ($SITE['banners'] = false;)

You can display ads, any other important text or photo’s using text / html or PHP code.

You can place one or more at the top and or bottom and it can all be different for content / size .



Meteosat more information blitzortung!


Radar lluvias  rain snow radar


Visita nuestra red de sitios de meteo:

Documentation for the template used

MeteoibericaRed estaciones Meteorologicas

MeteoclimaticRed estaciones Meteorologicas



Sin Advertencias climatologicas .En este momento tenemos Nivel Verde.    No hay Alarmas

Pagina Historial Weather Underground texto

Diario Resumen January 2, 2018 Unidades:  impérial    Métrico   Tanto
« Anterior Dia
Siguiente Dia »
Diario Semana Mensual Anual Personalizada
  Maxima: Minima: Media:
Temperatura: 68.4 °F 50 °F 57.7 °F
Punto de rocío: 53.8 °F 35.2 °F 43.9 °F
Humedad: 74 % 45 % 60 %
Velocidad del Viento: 19.6 mph 0 mph 4.8 mph
Ráfagas de viento: 19.6 mph - -
Viento:- - WSW
Pression baro: 30.5 in 30.4 in -
Précipitaciones: 0 in    
Historical Graphs
 
 
Datos de tabla para January 2, 2018
Tiempo Temperatura Punto de rocío Pression baro Viento Velocidad del Viento Ráfagas de viento Humedad Las precipitaciones Rate ( Hora )
00:00 56.8 °F 38.3 °F 30.5 in NNW 2.3 mph 2.3 mph 50 % 0 in
00:01 56.8 °F 38.8 °F 30.5 in NNW 4 mph 4 mph 51 % 0 in
00:06 56.5 °F 40.5 °F 30.5 in WSW 4.6 mph 4.6 mph 55 % 0 in
00:09 56.5 °F 40.5 °F 30.5 in WSW 3.5 mph 3.5 mph 55 % 0 in
00:11 56.1 °F 39.7 °F 30.5 in WSW 3.5 mph 3.5 mph 54 % 0 in
00:16 55.9 °F 37.6 °F 30.5 in WSW 1.2 mph   50 % 0 in
00:17 55.9 °F 37.6 °F 30.5 in Calm     50 % 0 in
00:21 55.9 °F 36.5 °F 30.5 in Calm     48 % 0 in
00:24 55.9 °F 36 °F 30.5 in WSW 1.2 mph   47 % 0 in
00:27 55.8 °F 35.2 °F 30.5 in Calm     46 % 0 in
00:30 55.9 °F 36 °F 30.5 in WSW 2.3 mph 2.3 mph 47 % 0 in
00:32 55.9 °F 36.5 °F 30.5 in WSW 2.3 mph 2.3 mph 48 % 0 in
00:37 55.2 °F 36 °F 30.5 in North 5 mph 5 mph 48 % 0 in
00:39 54.9 °F 36 °F 30.5 in North 4.6 mph 4.6 mph 49 % 0 in
00:42 54.1 °F 36 °F 30.5 in North 6.9 mph 6.9 mph 50 % 0 in
00:47 53.8 °F 36.1 °F 30.5 in North 5 mph 5 mph 51 % 0 in
00:48 53.8 °F 36.1 °F 30.5 in North 6.9 mph 6.9 mph 51 % 0 in
00:53 53.6 °F 36.3 °F 30.5 in NNW 8.1 mph 8.1 mph 52 % 0 in
00:55 53.4 °F 36.1 °F 30.5 in NNW 8.1 mph 8.1 mph 52 % 0 in
01:00 53.4 °F 36.1 °F 30.5 in NNW 5.8 mph 5.8 mph 52 % 0 in
01:01 53.4 °F 36.3 °F 30.5 in NNW 5.8 mph 5.8 mph 52 % 0 in
01:06 53.8 °F 36.5 °F 30.5 in NW 4.6 mph 4.6 mph 52 % 0 in
01:11 54 °F 36.1 °F 30.5 in NNW 3.5 mph 3.5 mph 51 % 0 in
01:16 54 °F 36.3 °F 30.5 in NNW 5 mph 5 mph 51 % 0 in
01:18 54 °F 36.1 °F 30.5 in North 6.9 mph 6.9 mph 51 % 0 in
01:22 53.6 °F 36 °F 30.5 in NNW 8.1 mph 8.1 mph 51 % 0 in
01:23 53.6 °F 36 °F 30.5 in NNW 8.1 mph 8.1 mph 51 % 0 in
01:28 53.8 °F 36.5 °F 30.5 in NNW 5.8 mph 5.8 mph 52 % 0 in
01:29 53.8 °F 36.5 °F 30.5 in NNW 4.6 mph 4.6 mph 52 % 0 in
01:31 53.6 °F 36.3 °F 30.5 in NNW 6.9 mph 6.9 mph 52 % 0 in
01:34 53.8 °F 36.5 °F 30.5 in NNW 5.8 mph 5.8 mph 52 % 0 in
01:39 53.8 °F 36.7 °F 30.5 in NNW 4.6 mph 4.6 mph 52 % 0 in
01:41 53.8 °F 36.7 °F 30.5 in NNW 4.6 mph 4.6 mph 52 % 0 in
01:46 53.8 °F 37 °F 30.5 in NNW 5.8 mph 5.8 mph 53 % 0 in
01:47 53.8 °F 37 °F 30.5 in NNW 5.8 mph 5.8 mph 53 % 0 in
01:50 53.8 °F 37 °F 30.5 in NNW 3.5 mph 3.5 mph 53 % 0 in
01:52 54 °F 38.1 °F 30.5 in WSW 3.5 mph 3.5 mph 55 % 0 in
01:56 54.1 °F 38.7 °F 30.5 in WSW 2.3 mph 2.3 mph 56 % 0 in
01:58 54 °F 38.7 °F 30.5 in WNW 3.5 mph 3.5 mph 56 % 0 in
02:03 54 °F 37.8 °F 30.5 in NW 2.3 mph 2.3 mph 54 % 0 in
02:05 54.1 °F 37.8 °F 30.5 in Calm     54 % 0 in
02:09 54 °F 37.8 °F 30.5 in NW 2.3 mph 2.3 mph 54 % 0 in
02:10 54 °F 37.8 °F 30.5 in NW 2.3 mph 2.3 mph 54 % 0 in
02:15 54 °F 38.1 °F 30.5 in NW 2.3 mph 2.3 mph 55 % 0 in
02:16 54 °F 38.1 °F 30.5 in NW 2.3 mph 2.3 mph 55 % 0 in
02:21 53.8 °F 38.8 °F 30.5 in WSW 4.6 mph 4.6 mph 57 % 0 in
02:23 53.8 °F 38.5 °F 30.5 in WSW 3.5 mph 3.5 mph 56 % 0 in
02:27 54 °F 38.7 °F 30.5 in NW 5 mph 5 mph 56 % 0 in
02:30 54.3 °F 37.9 °F 30.5 in WNW 6.9 mph 6.9 mph 54 % 0 in
02:33 54.9 °F 38.1 °F 30.5 in WNW 4 mph 4 mph 53 % 0 in
02:37 55.2 °F 38.5 °F 30.5 in NW 3 mph 3 mph 53 % 0 in
02:38 55.2 °F 38.5 °F 30.5 in NW 3.5 mph 3.5 mph 53 % 0 in
02:43 54 °F 38.7 °F 30.5 in North 3.5 mph 3.5 mph 56 % 0 in
02:48 52.3 °F 38.5 °F 30.5 in NE 3.5 mph 3.7 mph 59 % 0 in
02:53 52 °F 38.5 °F 30.5 in NE 3.5 mph 3.5 mph 60 % 0 in
02:54 51.8 °F 38.3 °F 30.5 in NE 2.3 mph 2.3 mph 60 % 0 in
02:59 52 °F 38.1 °F 30.5 in NNE 3.5 mph 3.5 mph 59 % 0 in
03:04 52.2 °F 38.7 °F 30.5 in NNE 3.5 mph 3.5 mph 60 % 0 in
03:05 52.2 °F 38.7 °F 30.5 in NNE 3.5 mph 3.5 mph 60 % 0 in
03:09 52.2 °F 38.7 °F 30.5 in North 3.5 mph 3.5 mph 60 % 0 in
03:11 52.2 °F 38.7 °F 30.5 in North 3.5 mph 3.5 mph 60 % 0 in
03:16 51.6 °F 38.3 °F 30.5 in North 3.5 mph 3.5 mph 60 % 0 in
03:19 51.4 °F 38.5 °F 30.5 in North 4.6 mph 4.6 mph 61 % 0 in
03:23 51.3 °F 38.3 °F 30.5 in North 4.6 mph 4.6 mph 61 % 0 in
03:28 51.6 °F 38.3 °F 30.5 in NNW 3.5 mph 3.5 mph 60 % 0 in
03:30 51.8 °F 38.3 °F 30.5 in NNW 3.5 mph 3.7 mph 60 % 0 in
03:33 52.2 °F 38.7 °F 30.5 in NNW 3.5 mph 3.5 mph 60 % 0 in
03:38 52.5 °F 39 °F 30.5 in NNW 3 mph 3 mph 60 % 0 in
03:39 52.5 °F 39 °F 30.5 in NNW 3 mph 3 mph 60 % 0 in
03:43 53.1 °F 39.6 °F 30.5 in NNW 3.5 mph 3.5 mph 60 % 0 in
03:44 53.1 °F 39.6 °F 30.5 in NNW 4 mph 4 mph 60 % 0 in
03:49 53.2 °F 39.4 °F 30.5 in NNW 2.3 mph 2.3 mph 59 % 0 in
03:51 53.4 °F 39 °F 30.5 in NNW 4.6 mph 4.6 mph 58 % 0 in
03:56 53.1 °F 39 °F 30.5 in NNW 4.6 mph 4.6 mph 59 % 0 in
04:01 52.5 °F 38.7 °F 30.5 in NNW 5.8 mph 5.8 mph 59 % 0 in
04:02 52.5 °F 38.7 °F 30.5 in NNW 5.8 mph 5.8 mph 59 % 0 in
04:04 52.5 °F 38.7 °F 30.5 in NNW 5.8 mph 5.8 mph 59 % 0 in
04:09 52.7 °F 38.8 °F 30.5 in North 4.6 mph 4.6 mph 59 % 0 in
04:15 52.5 °F 38.7 °F 30.5 in NNW 3 mph 6 mph 59 % 0 in
04:19 52.5 °F 38.7 °F 30.5 in NNW 3.5 mph 3.5 mph 59 % 0 in
04:29 52.2 °F 38.3 °F 30.5 in NNW 8.1 mph 8.1 mph 59 % 0 in
04:33 52 °F 38.5 °F 30.5 in NNW 5 mph 5 mph 60 % 0 in
04:38 52 °F 38.5 °F 30.5 in NNW 4.6 mph 4.6 mph 60 % 0 in
04:42 51.8 °F 38.8 °F 30.5 in North 5 mph 5 mph 61 % 0 in
04:43 51.8 °F 38.8 °F 30.5 in North 6 mph 6 mph 61 % 0 in
04:48 51.1 °F 38.1 °F 30.5 in North 5.8 mph 5.8 mph 61 % 0 in
04:49 51.1 °F 38.1 °F 30.5 in NNW 7 mph 7 mph 61 % 0 in
04:50 51.1 °F 37.9 °F 30.5 in NW 8.1 mph 8.1 mph 61 % 0 in
04:55 51.4 °F 38.5 °F 30.5 in NNE 7 mph 7 mph 61 % 0 in
04:56 51.4 °F 38.5 °F 30.5 in North 7 mph 7 mph 61 % 0 in
05:01 50.9 °F 38.7 °F 30.5 in NNW 8.1 mph 8.1 mph 63 % 0 in
05:02 50.7 °F 38.7 °F 30.5 in North 9 mph 9 mph 63 % 0 in
05:08 50.4 °F 39 °F 30.5 in NNW 9.2 mph 9.2 mph 65 % 0 in
05:13 50.5 °F 38.8 °F 30.5 in NNW 9.2 mph 9.2 mph 64 % 0 in
05:18 51.1 °F 39.2 °F 30.5 in North 8.1 mph 8.1 mph 64 % 0 in
05:19 51.3 °F 39 °F 30.5 in North 10.4 mph 10.4 mph 63 % 0 in
05:24 51.4 °F 39.2 °F 30.5 in NNW 8.1 mph 8.1 mph 63 % 0 in
05:26 51.4 °F 39.4 °F 30.5 in NNW 6.9 mph 6.9 mph 63 % 0 in
05:29 51.6 °F 39 °F 30.5 in NNW 8.1 mph 8.1 mph 62 % 0 in
05:34 51.6 °F 38.7 °F 30.5 in North 6.9 mph 6.9 mph 61 % 0 in
05:35 51.6 °F 38.7 °F 30.4 in North 6.9 mph 6.9 mph 61 % 0 in
05:40 51.1 °F 38.8 °F 30.5 in North 8.1 mph 8.1 mph 63 % 0 in
05:41 51.1 °F 38.8 °F 30.5 in NNW 9.2 mph 9.2 mph 63 % 0 in
05:46 51.1 °F 38.8 °F 30.5 in NNW 8.1 mph 8.1 mph 63 % 0 in
05:48 51.1 °F 38.8 °F 30.4 in NNW 6.9 mph 6.9 mph 63 % 0 in
05:53 51.3 °F 38.7 °F 30.4 in NNW 5 mph 5 mph 62 % 0 in
05:56 51.1 °F 38.8 °F 30.4 in North 8.1 mph 8.1 mph 63 % 0 in
06:00 50.5 °F 38.8 °F 30.4 in NNW 6.9 mph 6.9 mph 64 % 0 in
06:02 50.5 °F 38.8 °F 30.4 in NNW 8.1 mph 8.1 mph 64 % 0 in
06:07 50.4 °F 38.7 °F 30.4 in North 6.9 mph 6.9 mph 64 % 0 in
06:08 50.4 °F 38.7 °F 30.4 in North 9.2 mph 9.2 mph 64 % 0 in
06:12 50.4 °F 38.7 °F 30.4 in NNW 8.1 mph 8.1 mph 64 % 0 in
06:13 50.4 °F 39 °F 30.4 in North 8 mph 8 mph 65 % 0 in
06:18 50.2 °F 38.8 °F 30.4 in NNW 8.1 mph 8.1 mph 65 % 0 in
06:20 50 °F 38.7 °F 30.4 in NNW 8.1 mph 8.1 mph 65 % 0 in
06:21 50.2 °F 38.8 °F 30.4 in NNW 6.9 mph 6.9 mph 65 % 0 in
06:26 50.2 °F 38.8 °F 30.4 in North 6 mph 6 mph 65 % 0 in
06:30 50.2 °F 38.8 °F 30.4 in NNW 5.8 mph 5.8 mph 65 % 0 in
06:35 50.4 °F 39 °F 30.4 in NNW 6.9 mph 6.9 mph 65 % 0 in
06:40 50.4 °F 39 °F 30.4 in NNW 8.1 mph 8.1 mph 65 % 0 in
06:41 50.4 °F 39 °F 30.4 in NNW 8.1 mph 8.1 mph 65 % 0 in
06:43 50.5 °F 39.2 °F 30.4 in North 4.6 mph 4.6 mph 65 % 0 in
06:48 50.4 °F 39 °F 30.4 in NNW 7 mph 7 mph 65 % 0 in
06:53 50 °F 38.7 °F 30.4 in NNW 6.9 mph 6.9 mph 65 % 0 in
06:58 50 °F 38.7 °F 30.4 in North 5 mph 5 mph 65 % 0 in
06:59 50.2 °F 38.8 °F 30.4 in North 8 mph 8 mph 65 % 0 in
07:03 50.4 °F 39 °F 30.4 in North 7 mph 7 mph 65 % 0 in
07:08 50.5 °F 38.8 °F 30.5 in NNW 6.9 mph 6.9 mph 64 % 0 in
07:09 50.7 °F 39 °F 30.4 in North 6 mph 6 mph 64 % 0 in
07:14 51.1 °F 38.8 °F 30.5 in NNE 7 mph 7 mph 63 % 0 in
07:17 50.9 °F 38.7 °F 30.5 in NNW 11.5 mph 11.5 mph 63 % 0 in
07:19 50.5 °F 38.8 °F 30.5 in NW 6.9 mph 6.9 mph 64 % 0 in
07:24 50.9 °F 39 °F 30.5 in NNW 11.5 mph 11.5 mph 64 % 0 in
07:27 50.9 °F 39 °F 30.5 in NNW 6.9 mph 6.9 mph 64 % 0 in
07:30 51.1 °F 38.8 °F 30.5 in NNW 6.9 mph 6.9 mph 63 % 0 in
07:35 51.4 °F 39.4 °F 30.5 in North 7 mph 7 mph 63 % 0 in
07:40 51.1 °F 38.8 °F 30.5 in NNW 8.1 mph 8.1 mph 63 % 0 in
07:41 51.1 °F 38.8 °F 30.5 in NNW 8.1 mph 8.1 mph 63 % 0 in
07:42 51.1 °F 38.8 °F 30.5 in NNW 8.1 mph 8.1 mph 63 % 0 in
07:46 50.7 °F 39 °F 30.5 in NNW 9.2 mph 9.2 mph 64 % 0 in
07:51 50.4 °F 38.7 °F 30.5 in NNW 9.2 mph 9.2 mph 64 % 0 in
07:56 50.5 °F 38.8 °F 30.5 in NNW 6.9 mph 6.9 mph 64 % 0 in
07:59 50.7 °F 39 °F 30.5 in NNW 6.9 mph 6.9 mph 64 % 0 in
08:01 51.1 °F 38.8 °F 30.5 in NNW 6.9 mph 6.9 mph 63 % 0 in
08:06 51.3 °F 38.7 °F 30.5 in North 8 mph 8 mph 62 % 0 in
08:07 51.3 °F 39 °F 30.5 in North 9 mph 9 mph 63 % 0 in
08:10 51.1 °F 38.8 °F 30.5 in NNW 8.1 mph 8.1 mph 63 % 0 in
08:13 51.1 °F 38.5 °F 30.5 in North 7 mph 7 mph 62 % 0 in
08:15 51.1 °F 38.5 °F 30.5 in NNW 6.9 mph 6.9 mph 62 % 0 in
08:20 51.3 °F 38.7 °F 30.5 in NNW 5.8 mph 5.8 mph 62 % 0 in
08:22 51.3 °F 38.7 °F 30.5 in NNW 6.9 mph 6.9 mph 62 % 0 in
08:26 51.3 °F 38.7 °F 30.5 in North 6.9 mph 6.9 mph 62 % 0 in
08:31 50.7 °F 38.1 °F 30.5 in NNW 4.6 mph 4.6 mph 62 % 0 in
08:33 50.9 °F 38.3 °F 30.5 in North 7 mph 7 mph 62 % 0 in
08:38 51.3 °F 38.1 °F 30.5 in North 5.8 mph 5.8 mph 61 % 0 in
08:40 51.3 °F 38.1 °F 30.5 in North 11.5 mph 11.5 mph 61 % 0 in
08:44 51.1 °F 37.9 °F 30.5 in NNW 6.9 mph 6.9 mph 61 % 0 in
08:48 51.3 °F 37.8 °F 30.5 in NNW 6.9 mph 6.9 mph 60 % 0 in
08:49 51.3 °F 37.9 °F 30.5 in North 9 mph 9 mph 60 % 0 in
08:54 51.3 °F 37.8 °F 30.5 in NW 5.8 mph 5.8 mph 60 % 0 in
08:56 51.3 °F 37.9 °F 30.5 in NNW 6.9 mph 6.9 mph 60 % 0 in
09:01 51.3 °F 37.9 °F 30.5 in North 7 mph 7 mph 60 % 0 in
09:02 51.3 °F 38.3 °F 30.5 in NNW 8.1 mph 8.1 mph 61 % 0 in
09:07 51.6 °F 37.8 °F 30.5 in NNW 6.9 mph 6.9 mph 59 % 0 in
09:08 52 °F 37.9 °F 30.5 in NNW 6.9 mph 6.9 mph 59 % 0 in
09:10 52.2 °F 37.8 °F 30.5 in NNW 4.6 mph 4.6 mph 58 % 0 in
09:14 52.3 °F 37.9 °F 30.5 in North 6.9 mph 6.9 mph 58 % 0 in
09:19 52.5 °F 38.1 °F 30.5 in North 3.5 mph 3.5 mph 58 % 0 in
09:22 52.5 °F 38.1 °F 30.5 in North 4.6 mph 4.6 mph 58 % 0 in
09:25 52.7 °F 38.3 °F 30.5 in North 3.5 mph 3.5 mph 58 % 0 in
09:30 53.1 °F 37.8 °F 30.5 in WNW 5.8 mph 5.8 mph 56 % 0 in
09:35 53.4 °F 38.7 °F 30.5 in NE 3.5 mph 3.5 mph 57 % 0 in
09:37 53.4 °F 38.7 °F 30.5 in WNW 3.5 mph 3.5 mph 57 % 0 in
09:42 54 °F 38.7 °F 30.5 in NNW 3.5 mph 3.5 mph 56 % 0 in
09:43 54 °F 38.7 °F 30.5 in NNW 3.5 mph 3.5 mph 56 % 0 in
09:48 54.5 °F 38.7 °F 30.5 in NNW 2.3 mph 2.3 mph 55 % 0 in
09:53 54.9 °F 39 °F 30.5 in Calm     55 % 0 in
09:55 55 °F 39.6 °F 30.5 in Calm     56 % 0 in
10:00 55.4 °F 39.9 °F 30.5 in NE 2 mph 2 mph 56 % 0 in
10:01 55.6 °F 39.9 °F 30.5 in NE 2.3 mph 2.3 mph 56 % 0 in
10:06 55.8 °F 39.4 °F 30.5 in North 2.3 mph 2.3 mph 54 % 0 in
10:07 55.8 °F 39.4 °F 30.5 in North 4.6 mph 4.6 mph 54 % 0 in
10:08 55.9 °F 39.6 °F 30.5 in NNW 3.5 mph 3.5 mph 54 % 0 in
10:12 56.1 °F 39.4 °F 30.5 in NNE 5 mph 5 mph 53 % 0 in
10:17 56.7 °F 39.7 °F 30.5 in NNE 2.3 mph 2.3 mph 53 % 0 in
10:18 56.8 °F 39.7 °F 30.5 in NNE 7 mph 7 mph 53 % 0 in
10:19 56.8 °F 39.4 °F 30.5 in North 8.1 mph 8.1 mph 52 % 0 in
10:24 57 °F 38.5 °F 30.5 in North 6 mph 6 mph 50 % 0 in
10:25 57 °F 38.5 °F 30.5 in NNW 5.8 mph 5.8 mph 50 % 0 in
10:27 57.2 °F 38.7 °F 30.5 in NNW 4.6 mph 4.6 mph 50 % 0 in
10:31 57.7 °F 39.2 °F 30.5 in North 4.6 mph 4.6 mph 50 % 0 in
10:36 57.9 °F 36.9 °F 30.5 in North 6.9 mph 6.9 mph 45 % 0 in
10:41 58.6 °F 40.5 °F 30.5 in West 3.5 mph 3.5 mph 51 % 0 in
10:42 58.6 °F 40.5 °F 30.5 in West 3.5 mph 3.5 mph 51 % 0 in
10:44 58.8 °F 42.3 °F 30.5 in West 3.5 mph 3.5 mph 54 % 0 in
10:49 59 °F 43.3 °F 30.5 in West 2.3 mph 2.3 mph 56 % 0 in
10:54 59.4 °F 44.4 °F 30.5 in WSW 2.3 mph 2.3 mph 58 % 0 in
10:55 59.4 °F 44.4 °F 30.5 in WSW 2.3 mph 2.3 mph 58 % 0 in
11:00 59.4 °F 45.9 °F 30.5 in SW 4.6 mph 4.6 mph 61 % 0 in
11:04 59.4 °F 46.2 °F 30.5 in SW 3.5 mph 3.5 mph 62 % 0 in
11:05 59.2 °F 46.2 °F 30.5 in SW 3.5 mph 3.5 mph 62 % 0 in
11:09 59 °F 46.4 °F 30.5 in SW 4 mph 4 mph 63 % 0 in
11:14 58.6 °F 46 °F 30.5 in SW 4.6 mph 4.6 mph 63 % 0 in
11:15 58.6 °F 46 °F 30.5 in SW 4.6 mph 4.6 mph 63 % 0 in
11:20 58.5 °F 45.9 °F 30.5 in SW 5.8 mph 5.8 mph 63 % 0 in
11:25 58.3 °F 45.1 °F 30.5 in WSW 4.6 mph 4.6 mph 62 % 0 in
11:26 58.3 °F 44.8 °F 30.5 in WSW 5 mph 5 mph 61 % 0 in
11:28 58.3 °F 44.4 °F 30.5 in WSW 5 mph 5 mph 60 % 0 in
11:32 58.5 °F 45 °F 30.5 in WSW 4 mph 4 mph 61 % 0 in
11:37 58.6 °F 46.9 °F 30.5 in SW 5.8 mph 5.8 mph 65 % 0 in
11:38 58.6 °F 46.9 °F 30.5 in SW 5 mph 5 mph 65 % 0 in
11:43 58.6 °F 47.5 °F 30.5 in SW 5.8 mph 5.8 mph 66 % 0 in
11:46 58.8 °F 47.8 °F 30.5 in SW 4.6 mph 4.6 mph 67 % 0 in
11:49 58.8 °F 48 °F 30.5 in SW 5.8 mph 5.8 mph 67 % 0 in
11:54 59.2 °F 48.6 °F 30.5 in SW 5.8 mph 5.8 mph 68 % 0 in
11:58 59.2 °F 48.6 °F 30.5 in WSW 5.8 mph 5.8 mph 68 % 0 in
11:59 59 °F 48.4 °F 30.5 in WSW 3.5 mph 3.5 mph 68 % 0 in
12:04 59.2 °F 47.8 °F 30.5 in SW 3.5 mph 3.5 mph 66 % 0 in
12:08 59.2 °F 47.8 °F 30.5 in SW 4 mph 4 mph 66 % 0 in
12:13 59.2 °F 47.8 °F 30.5 in SW 3.5 mph 3.5 mph 66 % 0 in
12:16 59.4 °F 47.8 °F 30.5 in SW 2 mph 2 mph 66 % 0 in
12:21 59.7 °F 48.4 °F 30.5 in SW 3.5 mph 3.5 mph 66 % 0 in
12:26 60.1 °F 48.6 °F 30.5 in SW 3.5 mph 3.5 mph 66 % 0 in
12:29 60.3 °F 49.6 °F 30.5 in SW 3.5 mph 3.5 mph 68 % 0 in
12:33 60.3 °F 49.6 °F 30.5 in SW 3.5 mph 3.5 mph 68 % 0 in
12:38 60.3 °F 49.6 °F 30.5 in SW 2.3 mph 2.3 mph 68 % 0 in
12:39 60.3 °F 49.6 °F 30.5 in SW 3.5 mph 3.5 mph 68 % 0 in
12:40 60.4 °F 50.2 °F 30.5 in SW 3.5 mph 3.5 mph 69 % 0 in
12:45 60.4 °F 49.8 °F 30.5 in SW 2.3 mph 2.3 mph 68 % 0 in
12:46 60.6 °F 50 °F 30.5 in SW 1.2 mph   68 % 0 in
12:51 60.8 °F 50.2 °F 30.5 in Calm     68 % 0 in
12:53 61 °F 50.4 °F 30.5 in Calm     68 % 0 in
12:59 61.2 °F 50.5 °F 30.5 in SW 3.5 mph 3.5 mph 68 % 0 in
13:02 61.2 °F 50.5 °F 30.5 in SW 2.3 mph 2.3 mph 68 % 0 in
13:04 61.2 °F 50.5 °F 30.5 in SW 2.3 mph 2.3 mph 68 % 0 in
13:09 61.2 °F 50.5 °F 30.5 in SW 2.3 mph 2.3 mph 68 % 0 in
13:10 61.2 °F 50.5 °F 30.5 in SW 2.3 mph 2.3 mph 68 % 0 in
13:15 61.3 °F 51.1 °F 30.4 in Calm     69 % 0 in
13:20 61.2 °F 50.9 °F 30.4 in Calm     69 % 0 in
13:23 61.2 °F 50.5 °F 30.4 in Calm     68 % 0 in
13:26 61.2 °F 50.7 °F 30.4 in Calm     69 % 0 in
13:30 61.2 °F 50.5 °F 30.4 in Calm     68 % 0 in
13:35 61.2 °F 50.5 °F 30.4 in Calm     68 % 0 in
13:39 61.2 °F 50.5 °F 30.4 in Calm     68 % 0 in
13:41 61.3 °F 50.5 °F 30.4 in Calm     68 % 0 in
13:44 61.5 °F 50.5 °F 30.4 in Calm     67 % 0 in
13:46 61.5 °F 49.3 °F 30.4 in Calm     64 % 0 in
13:51 61.5 °F 49.6 °F 30.4 in Calm     65 % 0 in
13:53 61.5 °F 49.6 °F 30.4 in Calm     65 % 0 in
13:58 61.2 °F 50.5 °F 30.4 in SW 2.3 mph 2.3 mph 68 % 0 in
14:03 61.5 °F 51.6 °F 30.4 in SW 1.2 mph 1.2 mph 70 % 0 in
14:08 62.1 °F 51.6 °F 30.4 in Calm     69 % 0 in
14:13 62.2 °F 52 °F 30.4 in Calm     69 % 0 in
14:14 62.2 °F 52 °F 30.4 in Calm     69 % 0 in
14:17 62.2 °F 51.6 °F 30.4 in SW 1.2 mph 1.2 mph 68 % 0 in
14:25 62.4 °F 51.1 °F 30.4 in SW 1.2 mph   66 % 0 in
14:26 62.6 °F 51.1 °F 30.4 in SW 1.2 mph 1.2 mph 66 % 0 in
14:31 62.6 °F 49.5 °F 30.4 in SW 3.5 mph 3.5 mph 62 % 0 in
14:32 62.8 °F 49.8 °F 30.4 in SW 3.5 mph 3.5 mph 63 % 0 in
14:35 62.8 °F 50.4 °F 30.4 in SW 2.3 mph 2.3 mph 64 % 0 in
14:39 62.8 °F 50.4 °F 30.4 in SW 1.2 mph   64 % 0 in
14:44 63 °F 52 °F 30.4 in SW 2.3 mph 2.3 mph 67 % 0 in
14:46 63 °F 52.3 °F 30.4 in SW 2.3 mph 2.3 mph 68 % 0 in
14:53 62.1 °F 51.3 °F 30.4 in SW 2.3 mph 2.3 mph 68 % 0 in
14:57 61.3 °F 50.7 °F 30.4 in Calm     68 % 0 in
15:02 61.3 °F 51.8 °F 30.4 in SW 1.2 mph 1.2 mph 71 % 0 in
15:07 61.3 °F 51.1 °F 30.4 in SW 1.2 mph 1.2 mph 69 % 0 in
15:10 61.3 °F 52 °F 30.4 in SW 2.3 mph 2.3 mph 71 % 0 in
15:18 61.3 °F 52.3 °F 30.4 in SW 2.3 mph 2.3 mph 72 % 0 in
15:20 61.2 °F 51.3 °F 30.4 in SW 2.3 mph 2.3 mph 70 % 0 in
15:23 61.2 °F 52 °F 30.4 in SW 2.3 mph 2.3 mph 72 % 0 in
15:28 61 °F 51.4 °F 30.4 in SW 2.3 mph 2.3 mph 71 % 0 in
15:33 60.8 °F 51.6 °F 30.4 in Calm     72 % 0 in
15:34 60.8 °F 51.6 °F 30.4 in Calm     72 % 0 in
15:35 61 °F 51.8 °F 30.4 in Calm     72 % 0 in
15:40 60.6 °F 48.4 °F 30.4 in Calm   0.1 mph 64 % 0 in
15:43 60.6 °F 46.6 °F 30.4 in Calm     60 % 0 in
15:48 61.2 °F 47.1 °F 30.4 in Calm     60 % 0 in
15:51 61.3 °F 46.6 °F 30.4 in SW 1.2 mph 1.2 mph 58 % 0 in
15:54 61.5 °F 46.2 °F 30.4 in Calm     57 % 0 in
15:59 62.1 °F 44.2 °F 30.4 in Calm     52 % 0 in
16:00 62.2 °F 44.2 °F 30.4 in Calm     52 % 0 in
16:05 62.6 °F 45.7 °F 30.4 in Calm     54 % 0 in
16:10 62.8 °F 49.5 °F 30.4 in SW 2.3 mph   62 % 0 in
16:11 63 °F 50.2 °F 30.4 in Calm     63 % 0 in
16:16 62.8 °F 49.5 °F 30.4 in SW 2.3 mph 2.3 mph 62 % 0 in
16:18 62.4 °F 48.9 °F 30.4 in SW 1.2 mph 1.2 mph 61 % 0 in
16:20 62.4 °F 48.9 °F 30.4 in SW 1.2 mph 1.2 mph 61 % 0 in
16:23 62.4 °F 49.3 °F 30.4 in SW 2 mph 2 mph 62 % 0 in
16:28 62.2 °F 49.1 °F 30.4 in SW 1.2 mph   62 % 0 in
16:33 62.6 °F 47.1 °F 30.4 in SW 1.2 mph 1.2 mph 57 % 0 in
16:36 63 °F 46.6 °F 30.4 in Calm     55 % 0 in
16:41 62.4 °F 44.6 °F 30.4 in SSW 2.3 mph 2.3 mph 52 % 0 in
16:44 62.6 °F 46.2 °F 30.4 in SSW 1 mph 1 mph 55 % 0 in
16:49 62.2 °F 43.9 °F 30.4 in SSW 3.5 mph 3.5 mph 51 % 0 in
16:50 62.2 °F 44.2 °F 30.4 in SSW 2.3 mph 2.3 mph 52 % 0 in
16:51 62.1 °F 44.2 °F 30.4 in SSW 1.2 mph   52 % 0 in
16:56 62.2 °F 46.2 °F 30.4 in SSW 1.2 mph 1.2 mph 56 % 0 in
16:58 62.1 °F 45.1 °F 30.4 in SSW 1.2 mph   54 % 0 in
17:00 62.1 °F 44.8 °F 30.4 in Calm   1 mph 53 % 0 in
17:05 62.6 °F 48.9 °F 30.4 in Calm     61 % 0 in
17:06 62.6 °F 48.9 °F 30.4 in SSW 3.5 mph 3.5 mph 61 % 0 in
17:07 62.6 °F 48.9 °F 30.4 in SSW 3.5 mph 3.5 mph 61 % 0 in
17:11 62.1 °F 45.7 °F 30.4 in Calm     55 % 0 in
17:13 62.1 °F 45.7 °F 30.4 in Calm     55 % 0 in
17:17 62.4 °F 46.6 °F 30.4 in Calm     56 % 0 in
17:22 62.6 °F 45.1 °F 30.4 in Calm     53 % 0 in
17:23 62.6 °F 44.8 °F 30.4 in Calm     52 % 0 in
17:28 62.8 °F 42.8 °F 30.4 in East 1 mph 1 mph 48 % 0 in
17:29 62.8 °F 42.8 °F 30.4 in East 2.3 mph 2.3 mph 48 % 0 in
17:34 63.1 °F 44.8 °F 30.4 in Calm     51 % 0 in
17:36 63.1 °F 46.2 °F 30.4 in Calm     54 % 0 in
17:41 63.5 °F 46 °F 30.4 in East 2.3 mph 2.3 mph 53 % 0 in
17:43 63.5 °F 44.4 °F 30.4 in East 2.3 mph 2.3 mph 50 % 0 in
17:47 63.7 °F 45.1 °F 30.4 in SE 2.3 mph 2.3 mph 51 % 0 in
17:52 63.7 °F 46 °F 30.4 in South 3.5 mph 3.5 mph 53 % 0 in
17:53 63.7 °F 46 °F 30.4 in South 3.5 mph 3.5 mph 53 % 0 in
17:55 63.7 °F 46.6 °F 30.4 in SSW 3.5 mph 3.5 mph 54 % 0 in
17:58 63.5 °F 47.5 °F 30.4 in SSW 3.5 mph 3.5 mph 56 % 0 in
18:03 63.1 °F 48 °F 30.4 in WSW 4 mph 4 mph 58 % 0 in
18:05 63 °F 46.9 °F 30.4 in WSW 3.5 mph 3.5 mph 56 % 0 in
18:08 62.8 °F 46.2 °F 30.4 in Calm     55 % 0 in
18:10 62.4 °F 48.4 °F 30.4 in South 3.5 mph 3.5 mph 60 % 0 in
18:17 62.1 °F 47.7 °F 30.4 in WSW 3.5 mph 3.5 mph 59 % 0 in
18:22 61.9 °F 48.2 °F 30.4 in WSW 2.3 mph 2.3 mph 61 % 0 in
18:23 61.7 °F 48 °F 30.4 in WSW 2.3 mph 2.3 mph 61 % 0 in
18:28 61.3 °F 49.8 °F 30.4 in WSW 2.3 mph 2.3 mph 66 % 0 in
18:33 60.8 °F 48.6 °F 30.4 in Calm     64 % 0 in
18:34 60.8 °F 48.6 °F 30.4 in Calm     64 % 0 in
18:35 60.6 °F 49.3 °F 30.4 in SSE 2 mph 2 mph 66 % 0 in
18:40 60.6 °F 49.3 °F 30.4 in Calm     66 % 0 in
18:41 60.6 °F 49.3 °F 30.4 in Calm     66 % 0 in
18:46 60.4 °F 48.2 °F 30.4 in Calm     64 % 0 in
18:47 60.4 °F 48.2 °F 30.4 in Calm     64 % 0 in
18:51 60.4 °F 47.3 °F 30.4 in Calm     62 % 0 in
18:54 60.4 °F 47.3 °F 30.4 in Calm     62 % 0 in
18:59 60.3 °F 46.8 °F 30.4 in Calm     61 % 0 in
19:02 60.3 °F 46.2 °F 30.4 in Calm     60 % 0 in
19:07 60.3 °F 45.9 °F 30.4 in NW 3.5 mph 3.5 mph 59 % 0 in
19:10 60.4 °F 45.5 °F 30.4 in NW 5.8 mph 5.8 mph 58 % 0 in
19:15 60.4 °F 45.1 °F 30.4 in NW 8.1 mph 8.1 mph 57 % 0 in
19:16 60.4 °F 44.8 °F 30.4 in NW 9 mph 9 mph 56 % 0 in
19:21 60.8 °F 44.4 °F 30.4 in NW 7 mph 7 mph 55 % 0 in
19:26 61.3 °F 44.1 °F 30.4 in WNW 5.8 mph 5.8 mph 53 % 0 in
19:27 61.5 °F 43.7 °F 30.4 in WNW 5 mph 5 mph 52 % 0 in
19:29 61.7 °F 43 °F 30.4 in WNW 5 mph 5 mph 50 % 0 in
19:34 62.2 °F 44.2 °F 30.4 in West 4.6 mph 4.6 mph 52 % 0 in
19:35 62.2 °F 45 °F 30.4 in WNW 4.6 mph 4.6 mph 53 % 0 in
19:38 62.4 °F 45.7 °F 30.4 in WNW 5 mph 5 mph 54 % 0 in
19:41 63 °F 46.6 °F 30.4 in NNW 11.5 mph 11.5 mph 55 % 0 in
19:45 63.5 °F 47.1 °F 30.4 in NNW 8 mph 13 mph 55 % 0 in
19:46 64.2 °F 48.2 °F 30.4 in NNE 15 mph 15 mph 56 % 0 in
19:51 66.2 °F 49.1 °F 30.4 in NNE 17.3 mph 17.3 mph 54 % 0 in
19:52 66.2 °F 49.1 °F 30.4 in NE 15 mph 15 mph 54 % 0 in
19:57 65.8 °F 48.4 °F 30.4 in NE 15 mph 15 mph 53 % 0 in
19:58 65.8 °F 48.4 °F 30.4 in NE 16.1 mph 16.1 mph 53 % 0 in
20:03 64.8 °F 46.8 °F 30.4 in ENE 13.8 mph 13.8 mph 52 % 0 in
20:08 64.6 °F 48 °F 30.4 in NNE 18.4 mph 18.4 mph 55 % 0 in
20:09 64.6 °F 48 °F 30.4 in North 18.4 mph 18.4 mph 55 % 0 in
20:10 64.9 °F 48.4 °F 30.4 in ENE 19.6 mph 19.6 mph 55 % 0 in
20:15 66.9 °F 48.7 °F 30.4 in NNE 19.6 mph 19.6 mph 52 % 0 in
20:17 67.5 °F 49.6 °F 30.4 in NNW 17.3 mph 17.3 mph 53 % 0 in
20:22 68.4 °F 50 °F 30.4 in NNW 18.4 mph 18.4 mph 52 % 0 in
20:23 68.4 °F 49.6 °F 30.4 in NNW 15 mph 15 mph 51 % 0 in
20:28 66.6 °F 49.5 °F 30.4 in NNE 11.5 mph 11.5 mph 54 % 0 in
20:33 65.1 °F 48 °F 30.4 in NE 12 mph 12 mph 54 % 0 in
20:37 63.9 °F 46.4 °F 30.4 in NE 11.5 mph 11.5 mph 53 % 0 in
20:42 62.8 °F 46.2 °F 30.4 in NNE 9.2 mph 9.2 mph 55 % 0 in
20:43 62.6 °F 46.2 °F 30.4 in NNE 11.5 mph 11.5 mph 55 % 0 in
20:48 62.2 °F 46.2 °F 30.4 in North 8.1 mph 8.1 mph 56 % 0 in
20:49 62.2 °F 46.8 °F 30.4 in North 8.1 mph 8.1 mph 57 % 0 in
20:54 62.2 °F 46.9 °F 30.4 in NNE 9.2 mph 9.2 mph 57 % 0 in
20:59 62.2 °F 46.9 °F 30.4 in ENE 6.9 mph 6.9 mph 57 % 0 in
21:02 63 °F 48.4 °F 30.4 in NE 11.5 mph 11.5 mph 59 % 0 in
21:04 63.1 °F 48 °F 30.4 in ENE 10.4 mph 10.4 mph 58 % 0 in
21:10 63 °F 47.8 °F 30.4 in NE 5 mph 9 mph 58 % 0 in
21:15 63.1 °F 47.7 °F 30.4 in NE 3 mph 8 mph 57 % 0 in
21:16 63.1 °F 47.7 °F 30.4 in NE 6.9 mph 6.9 mph 57 % 0 in
21:21 62.4 °F 48.4 °F 30.4 in North 6.9 mph 6.9 mph 60 % 0 in
21:22 62.4 °F 48.4 °F 30.4 in North 9.2 mph 9.2 mph 60 % 0 in
21:24 62.2 °F 47.8 °F 30.4 in NE 7 mph 7 mph 59 % 0 in
21:27 62.8 °F 47.8 °F 30.4 in NE 9.2 mph 9.2 mph 58 % 0 in
21:32 63.3 °F 47.8 °F 30.4 in ENE 6.9 mph 6.9 mph 57 % 0 in
21:35 63.9 °F 48.7 °F 30.4 in ENE 8.1 mph 8.1 mph 58 % 0 in
21:40 63.3 °F 49.6 °F 30.4 in Calm     61 % 0 in
21:41 63.1 °F 49.5 °F 30.4 in Calm     61 % 0 in
21:46 63 °F 49.8 °F 30.4 in Calm     62 % 0 in
21:47 63 °F 49.8 °F 30.4 in Calm     62 % 0 in
21:52 63.1 °F 50 °F 30.4 in SE 3.5 mph 3.6 mph 62 % 0 in
21:57 63.7 °F 49.8 °F 30.4 in South 4.6 mph 4.6 mph 61 % 0 in
22:03 64.2 °F 52 °F 30.4 in SSW 13.8 mph 13.8 mph 64 % 0 in
22:08 63.9 °F 52.5 °F 30.4 in SSW 15 mph 15 mph 67 % 0 in
22:09 63.7 °F 53.2 °F 30.4 in South 15 mph 15 mph 69 % 0 in
22:13 62.8 °F 53.2 °F 30.4 in South 12.7 mph 12.7 mph 71 % 0 in
22:15 62.6 °F 53.1 °F 30.4 in South 13.8 mph 13.8 mph 71 % 0 in
22:19 62.2 °F 53.1 °F 30.4 in South 13.8 mph 13.8 mph 72 % 0 in
22:24 62.1 °F 53.2 °F 30.4 in South 13 mph 13 mph 73 % 0 in
22:25 62.1 °F 53.1 °F 30.4 in South 13.8 mph 13.8 mph 72 % 0 in
22:26 62.2 °F 53.1 °F 30.4 in South 12.7 mph 12.7 mph 72 % 0 in
22:31 62.4 °F 53.6 °F 30.4 in South 9.2 mph 9.2 mph 73 % 0 in
22:33 62.2 °F 53.4 °F 30.4 in South 6.9 mph 6.9 mph 73 % 0 in
22:36 62.1 °F 53.2 °F 30.4 in South 3.5 mph 3.5 mph 73 % 0 in
22:41 62.1 °F 53.8 °F 30.4 in South 4.6 mph 4.6 mph 74 % 0 in
22:43 62.1 °F 53.8 °F 30.4 in Calm     74 % 0 in
22:48 61.7 °F 52.5 °F 30.4 in ESE 2.3 mph 2.3 mph 72 % 0 in
22:49 61.7 °F 52.5 °F 30.4 in ESE 2.3 mph 2.3 mph 72 % 0 in
22:54 61.5 °F 52.3 °F 30.4 in Calm     72 % 0 in
22:59 61.5 °F 52.9 °F 30.4 in Calm     73 % 0 in
23:01 61.5 °F 52.9 °F 30.4 in Calm     73 % 0 in
23:06 61.5 °F 52.5 °F 30.4 in East 3.5 mph 3.5 mph 72 % 0 in
23:07 61.5 °F 52.5 °F 30.4 in North 5 mph 5 mph 72 % 0 in
23:09 61.3 °F 51.4 °F 30.4 in North 5.8 mph 5.8 mph 70 % 0 in
23:12 61 °F 50.7 °F 30.4 in North 4 mph 4 mph 69 % 0 in
23:17 60.4 °F 50.4 °F 30.4 in NNE 5.8 mph 5.8 mph 69 % 0 in
23:22 60.3 °F 50 °F 30.4 in NNE 3.5 mph 3.5 mph 69 % 0 in
23:27 60.3 °F 49.6 °F 30.4 in NNE 4.6 mph 4.6 mph 68 % 0 in
23:28 60.3 °F 49.6 °F 30.4 in North 3.5 mph 3.5 mph 68 % 0 in
23:33 60.4 °F 49.5 °F 30.4 in NNE 3.5 mph 3.5 mph 67 % 0 in
23:36 60.6 °F 49.3 °F 30.4 in NNE 4.6 mph 4.8 mph 66 % 0 in
23:39 60.8 °F 49.5 °F 30.4 in North 3.5 mph 3.5 mph 66 % 0 in
23:43 60.8 °F 48.9 °F 30.4 in NNE 3.5 mph 3.5 mph 65 % 0 in
23:46 61 °F 49.1 °F 30.4 in North 5 mph 5 mph 65 % 0 in
23:49 60.8 °F 48.9 °F 30.4 in NNW 3.5 mph 3.5 mph 65 % 0 in
23:52 60.6 °F 48.9 °F 30.4 in NNW 3.5 mph 3.5 mph 65 % 0 in
23:57 61 °F 48.7 °F 30.4 in NNW 5.8 mph 5.8 mph 64 % 0 in
Puerto Banus, Marbella
Elogios de Weather Underground - 2 mb

Guión original por  Jim McMurry - jmcmurry@mwt.net Adaptado para la plantilla por  Wim van der Kuil - Leuven-Template.eu

Usted encontrará nuestra información del tiempo también en:

Weather Underground

Iberian Peninsula Weather Network